sensor_id;sensor_type;location;lat;lon;timestamp;temperature;humidity
45983;DHT22;31711;47.158;7.346;2023-01-05T00:01:13;8.50;99.90
45983;DHT22;31711;47.158;7.346;2023-01-05T00:03:39;8.50;99.90
45983;DHT22;31711;47.158;7.346;2023-01-05T00:06:15;8.50;99.90
45983;DHT22;31711;47.158;7.346;2023-01-05T00:08:43;8.50;99.90
45983;DHT22;31711;47.158;7.346;2023-01-05T00:11:15;8.50;99.90
45983;DHT22;31711;47.158;7.346;2023-01-05T00:14:00;8.50;99.90
45983;DHT22;31711;47.158;7.346;2023-01-05T00:16:45;8.40;99.90
45983;DHT22;31711;47.158;7.346;2023-01-05T00:19:30;8.50;99.90
45983;DHT22;31711;47.158;7.346;2023-01-05T00:22:20;8.40;99.90
45983;DHT22;31711;47.158;7.346;2023-01-05T00:24:59;8.40;99.90
45983;DHT22;31711;47.158;7.346;2023-01-05T00:27:26;8.40;99.90
45983;DHT22;31711;47.158;7.346;2023-01-05T00:29:53;8.50;99.90
45983;DHT22;31711;47.158;7.346;2023-01-05T00:32:19;8.50;99.90
45983;DHT22;31711;47.158;7.346;2023-01-05T00:34:45;8.50;99.90
45983;DHT22;31711;47.158;7.346;2023-01-05T00:37:10;8.50;99.90
45983;DHT22;31711;47.158;7.346;2023-01-05T00:39:37;8.50;99.90
45983;DHT22;31711;47.158;7.346;2023-01-05T00:42:03;8.50;99.90
45983;DHT22;31711;47.158;7.346;2023-01-05T00:44:28;8.50;99.90
45983;DHT22;31711;47.158;7.346;2023-01-05T00:46:54;8.50;99.90
45983;DHT22;31711;47.158;7.346;2023-01-05T00:49:21;8.50;99.90
45983;DHT22;31711;47.158;7.346;2023-01-05T00:51:47;8.50;99.90
45983;DHT22;31711;47.158;7.346;2023-01-05T00:54:13;8.50;99.90
45983;DHT22;31711;47.158;7.346;2023-01-05T00:56:39;8.50;99.90
45983;DHT22;31711;47.158;7.346;2023-01-05T00:59:05;8.50;99.90
45983;DHT22;31711;47.158;7.346;2023-01-05T01:01:31;8.50;99.90
45983;DHT22;31711;47.158;7.346;2023-01-05T01:03:56;8.50;99.90
45983;DHT22;31711;47.158;7.346;2023-01-05T01:06:22;8.50;99.90
45983;DHT22;31711;47.158;7.346;2023-01-05T01:08:48;8.50;99.90
45983;DHT22;31711;47.158;7.346;2023-01-05T01:11:15;8.50;99.90
45983;DHT22;31711;47.158;7.346;2023-01-05T01:13:43;8.50;99.90
45983;DHT22;31711;47.158;7.346;2023-01-05T01:16:11;8.50;99.90
45983;DHT22;31711;47.158;7.346;2023-01-05T01:18:37;8.50;99.90
45983;DHT22;31711;47.158;7.346;2023-01-05T01:21:03;8.50;99.90
45983;DHT22;31711;47.158;7.346;2023-01-05T01:23:30;8.50;99.90
45983;DHT22;31711;47.158;7.346;2023-01-05T01:25:56;8.50;99.90
45983;DHT22;31711;47.158;7.346;2023-01-05T01:28:22;8.50;99.90
45983;DHT22;31711;47.158;7.346;2023-01-05T01:30:49;8.50;99.90
45983;DHT22;31711;47.158;7.346;2023-01-05T01:33:15;8.50;99.90
45983;DHT22;31711;47.158;7.346;2023-01-05T01:35:41;8.50;99.90
45983;DHT22;31711;47.158;7.346;2023-01-05T01:38:07;8.50;99.90
45983;DHT22;31711;47.158;7.346;2023-01-05T01:40:41;8.50;99.90
45983;DHT22;31711;47.158;7.346;2023-01-05T01:43:54;8.50;99.90
45983;DHT22;31711;47.158;7.346;2023-01-05T01:46:00;8.50;99.90
45983;DHT22;31711;47.158;7.346;2023-01-05T01:48:26;8.50;99.90
45983;DHT22;31711;47.158;7.346;2023-01-05T01:50:53;8.50;99.90
45983;DHT22;31711;47.158;7.346;2023-01-05T01:53:28;8.50;99.90
45983;DHT22;31711;47.158;7.346;2023-01-05T01:55:59;8.50;99.90
45983;DHT22;31711;47.158;7.346;2023-01-05T01:58:29;8.60;99.90
45983;DHT22;31711;47.158;7.346;2023-01-05T02:00:57;8.60;99.90
45983;DHT22;31711;47.158;7.346;2023-01-05T02:03:27;8.60;99.90
45983;DHT22;31711;47.158;7.346;2023-01-05T02:05:53;8.60;99.90
45983;DHT22;31711;47.158;7.346;2023-01-05T02:08:20;8.60;99.90
45983;DHT22;31711;47.158;7.346;2023-01-05T02:38:22;8.70;99.90
45983;DHT22;31711;47.158;7.346;2023-01-05T02:40:55;8.60;99.90
45983;DHT22;31711;47.158;7.346;2023-01-05T02:43:22;8.60;99.90
45983;DHT22;31711;47.158;7.346;2023-01-05T02:45:49;8.60;99.90
45983;DHT22;31711;47.158;7.346;2023-01-05T02:48:15;8.60;99.90
45983;DHT22;31711;47.158;7.346;2023-01-05T02:56:33;8.60;99.90
45983;DHT22;31711;47.158;7.346;2023-01-05T03:01:32;8.60;99.90
45983;DHT22;31711;47.158;7.346;2023-01-05T03:04:09;8.50;99.90
45983;DHT22;31711;47.158;7.346;2023-01-05T03:06:49;8.60;99.90
45983;DHT22;31711;47.158;7.346;2023-01-05T03:09:23;8.60;99.90
45983;DHT22;31711;47.158;7.346;2023-01-05T03:12:08;8.60;99.90
45983;DHT22;31711;47.158;7.346;2023-01-05T03:17:53;8.50;99.90
45983;DHT22;31711;47.158;7.346;2023-01-05T03:20:23;8.50;99.90
45983;DHT22;31711;47.158;7.346;2023-01-05T03:22:51;8.60;99.90
45983;DHT22;31711;47.158;7.346;2023-01-05T03:25:37;8.60;99.90
45983;DHT22;31711;47.158;7.346;2023-01-05T03:28:37;8.60;99.90
45983;DHT22;31711;47.158;7.346;2023-01-05T03:31:34;8.60;99.90
45983;DHT22;31711;47.158;7.346;2023-01-05T03:34:28;8.60;99.90
45983;DHT22;31711;47.158;7.346;2023-01-05T03:37:23;8.60;99.90
45983;DHT22;31711;47.158;7.346;2023-01-05T03:39:50;8.60;99.90
45983;DHT22;31711;47.158;7.346;2023-01-05T03:42:16;8.70;99.90
45983;DHT22;31711;47.158;7.346;2023-01-05T03:44:44;8.70;99.90
45983;DHT22;31711;47.158;7.346;2023-01-05T03:47:11;8.70;99.90
45983;DHT22;31711;47.158;7.346;2023-01-05T03:49:37;8.70;99.90
45983;DHT22;31711;47.158;7.346;2023-01-05T03:52:04;8.70;99.90
45983;DHT22;31711;47.158;7.346;2023-01-05T03:54:30;8.70;99.90
45983;DHT22;31711;47.158;7.346;2023-01-05T03:56:56;8.80;99.90
45983;DHT22;31711;47.158;7.346;2023-01-05T03:59:22;8.80;99.90
45983;DHT22;31711;47.158;7.346;2023-01-05T04:01:48;8.70;99.90
45983;DHT22;31711;47.158;7.346;2023-01-05T04:04:14;8.70;99.90
45983;DHT22;31711;47.158;7.346;2023-01-05T04:06:40;8.70;99.90
45983;DHT22;31711;47.158;7.346;2023-01-05T04:09:06;8.70;99.90
45983;DHT22;31711;47.158;7.346;2023-01-05T04:11:32;8.80;99.90
45983;DHT22;31711;47.158;7.346;2023-01-05T04:13:58;8.70;99.90
45983;DHT22;31711;47.158;7.346;2023-01-05T04:16:24;8.70;99.90
45983;DHT22;31711;47.158;7.346;2023-01-05T04:18:50;8.70;99.90
45983;DHT22;31711;47.158;7.346;2023-01-05T04:21:16;8.70;99.90
45983;DHT22;31711;47.158;7.346;2023-01-05T04:23:42;8.70;99.90
45983;DHT22;31711;47.158;7.346;2023-01-05T04:26:07;8.70;99.90
45983;DHT22;31711;47.158;7.346;2023-01-05T04:28:33;8.70;99.90
45983;DHT22;31711;47.158;7.346;2023-01-05T04:30:59;8.70;99.90
45983;DHT22;31711;47.158;7.346;2023-01-05T04:33:25;8.70;99.90
45983;DHT22;31711;47.158;7.346;2023-01-05T04:35:51;8.70;99.90
45983;DHT22;31711;47.158;7.346;2023-01-05T04:38:17;8.60;99.90
45983;DHT22;31711;47.158;7.346;2023-01-05T04:40:47;8.70;99.90
45983;DHT22;31711;47.158;7.346;2023-01-05T04:43:14;8.60;99.90
45983;DHT22;31711;47.158;7.346;2023-01-05T04:45:40;8.60;99.90
45983;DHT22;31711;47.158;7.346;2023-01-05T04:48:06;8.60;99.90
45983;DHT22;31711;47.158;7.346;2023-01-05T04:50:32;8.60;99.90
45983;DHT22;31711;47.158;7.346;2023-01-05T04:52:58;8.60;99.90
45983;DHT22;31711;47.158;7.346;2023-01-05T04:55:24;8.60;99.90
45983;DHT22;31711;47.158;7.346;2023-01-05T04:57:50;8.60;99.90
45983;DHT22;31711;47.158;7.346;2023-01-05T05:00:16;8.60;99.90
45983;DHT22;31711;47.158;7.346;2023-01-05T05:02:42;8.60;99.90
45983;DHT22;31711;47.158;7.346;2023-01-05T05:05:08;8.70;99.90
45983;DHT22;31711;47.158;7.346;2023-01-05T05:07:34;8.70;99.90
45983;DHT22;31711;47.158;7.346;2023-01-05T05:10:00;8.70;99.90
45983;DHT22;31711;47.158;7.346;2023-01-05T05:12:26;8.70;99.90
45983;DHT22;31711;47.158;7.346;2023-01-05T05:14:52;8.70;99.90
45983;DHT22;31711;47.158;7.346;2023-01-05T05:17:17;8.70;99.90
45983;DHT22;31711;47.158;7.346;2023-01-05T05:19:43;8.70;99.90
45983;DHT22;31711;47.158;7.346;2023-01-05T05:22:09;8.70;99.90
45983;DHT22;31711;47.158;7.346;2023-01-05T05:24:36;8.70;99.90
45983;DHT22;31711;47.158;7.346;2023-01-05T05:27:01;8.80;99.90
45983;DHT22;31711;47.158;7.346;2023-01-05T05:29:27;8.80;99.90
45983;DHT22;31711;47.158;7.346;2023-01-05T05:31:53;8.80;99.90
45983;DHT22;31711;47.158;7.346;2023-01-05T05:34:19;8.80;99.90
45983;DHT22;31711;47.158;7.346;2023-01-05T05:36:45;8.80;99.90
45983;DHT22;31711;47.158;7.346;2023-01-05T05:39:12;8.80;99.90
45983;DHT22;31711;47.158;7.346;2023-01-05T05:41:38;8.80;99.90
45983;DHT22;31711;47.158;7.346;2023-01-05T05:44:05;8.80;99.90
45983;DHT22;31711;47.158;7.346;2023-01-05T05:46:31;8.80;99.90
45983;DHT22;31711;47.158;7.346;2023-01-05T05:48:57;8.80;99.90
45983;DHT22;31711;47.158;7.346;2023-01-05T05:51:24;8.90;99.90
45983;DHT22;31711;47.158;7.346;2023-01-05T05:53:51;8.90;99.90
45983;DHT22;31711;47.158;7.346;2023-01-05T05:56:17;8.90;99.90
45983;DHT22;31711;47.158;7.346;2023-01-05T05:58:43;8.90;99.90
45983;DHT22;31711;47.158;7.346;2023-01-05T06:01:10;8.90;99.90
45983;DHT22;31711;47.158;7.346;2023-01-05T06:03:36;8.90;99.90
45983;DHT22;31711;47.158;7.346;2023-01-05T06:06:02;8.90;99.90
45983;DHT22;31711;47.158;7.346;2023-01-05T06:08:29;8.90;99.90
45983;DHT22;31711;47.158;7.346;2023-01-05T06:10:55;8.90;99.90
45983;DHT22;31711;47.158;7.346;2023-01-05T06:13:22;8.90;99.90
45983;DHT22;31711;47.158;7.346;2023-01-05T06:15:48;8.90;99.90
45983;DHT22;31711;47.158;7.346;2023-01-05T06:18:14;9.00;99.90
45983;DHT22;31711;47.158;7.346;2023-01-05T06:20:41;9.00;99.90
45983;DHT22;31711;47.158;7.346;2023-01-05T06:23:07;9.00;99.90
45983;DHT22;31711;47.158;7.346;2023-01-05T06:25:33;9.00;99.90
45983;DHT22;31711;47.158;7.346;2023-01-05T06:28:00;8.90;99.90
45983;DHT22;31711;47.158;7.346;2023-01-05T06:30:26;9.00;99.90
45983;DHT22;31711;47.158;7.346;2023-01-05T06:32:53;9.00;99.90
45983;DHT22;31711;47.158;7.346;2023-01-05T06:35:19;9.00;99.90
45983;DHT22;31711;47.158;7.346;2023-01-05T06:37:45;9.00;99.90
45983;DHT22;31711;47.158;7.346;2023-01-05T06:40:11;9.00;99.90
45983;DHT22;31711;47.158;7.346;2023-01-05T06:42:38;9.00;99.90
45983;DHT22;31711;47.158;7.346;2023-01-05T06:45:05;9.00;99.90
45983;DHT22;31711;47.158;7.346;2023-01-05T06:47:31;9.10;99.90
45983;DHT22;31711;47.158;7.346;2023-01-05T06:49:58;9.10;99.90
45983;DHT22;31711;47.158;7.346;2023-01-05T06:52:24;9.20;99.90
45983;DHT22;31711;47.158;7.346;2023-01-05T06:54:50;9.10;99.90
45983;DHT22;31711;47.158;7.346;2023-01-05T06:57:16;9.10;99.90
45983;DHT22;31711;47.158;7.346;2023-01-05T06:59:42;9.10;99.90
45983;DHT22;31711;47.158;7.346;2023-01-05T07:02:16;9.10;99.90
45983;DHT22;31711;47.158;7.346;2023-01-05T07:04:42;9.10;99.90
45983;DHT22;31711;47.158;7.346;2023-01-05T07:07:12;9.20;99.90
45983;DHT22;31711;47.158;7.346;2023-01-05T07:09:39;9.20;99.90
45983;DHT22;31711;47.158;7.346;2023-01-05T07:12:05;9.20;99.90
45983;DHT22;31711;47.158;7.346;2023-01-05T07:14:31;9.20;99.90
45983;DHT22;31711;47.158;7.346;2023-01-05T07:16:57;9.20;99.90
45983;DHT22;31711;47.158;7.346;2023-01-05T07:19:23;9.20;99.90
45983;DHT22;31711;47.158;7.346;2023-01-05T07:21:49;9.30;99.90
45983;DHT22;31711;47.158;7.346;2023-01-05T07:24:15;9.30;99.90
45983;DHT22;31711;47.158;7.346;2023-01-05T07:26:41;9.30;99.90
45983;DHT22;31711;47.158;7.346;2023-01-05T07:29:07;9.30;99.90
45983;DHT22;31711;47.158;7.346;2023-01-05T07:31:33;9.20;99.90
45983;DHT22;31711;47.158;7.346;2023-01-05T07:33:59;9.20;99.90
45983;DHT22;31711;47.158;7.346;2023-01-05T07:36:25;9.20;99.90
45983;DHT22;31711;47.158;7.346;2023-01-05T07:38:52;9.20;99.90
45983;DHT22;31711;47.158;7.346;2023-01-05T07:41:18;9.20;99.90
45983;DHT22;31711;47.158;7.346;2023-01-05T07:43:47;9.20;99.90
45983;DHT22;31711;47.158;7.346;2023-01-05T07:46:13;9.20;99.90
45983;DHT22;31711;47.158;7.346;2023-01-05T07:48:40;9.20;99.90
45983;DHT22;31711;47.158;7.346;2023-01-05T07:51:07;9.10;99.90
45983;DHT22;31711;47.158;7.346;2023-01-05T07:53:35;9.20;99.90
45983;DHT22;31711;47.158;7.346;2023-01-05T07:56:04;9.20;99.90
45983;DHT22;31711;47.158;7.346;2023-01-05T07:58:31;9.20;99.90
45983;DHT22;31711;47.158;7.346;2023-01-05T08:01:04;9.20;99.90
45983;DHT22;31711;47.158;7.346;2023-01-05T08:03:31;9.20;99.90
45983;DHT22;31711;47.158;7.346;2023-01-05T08:05:57;9.20;99.90
45983;DHT22;31711;47.158;7.346;2023-01-05T08:08:23;9.20;99.90
45983;DHT22;31711;47.158;7.346;2023-01-05T08:10:49;9.20;99.90
45983;DHT22;31711;47.158;7.346;2023-01-05T08:13:15;9.20;99.90
45983;DHT22;31711;47.158;7.346;2023-01-05T08:16:00;9.20;99.90
45983;DHT22;31711;47.158;7.346;2023-01-05T08:18:26;9.20;99.90
45983;DHT22;31711;47.158;7.346;2023-01-05T08:20:57;9.20;99.90
45983;DHT22;31711;47.158;7.346;2023-01-05T08:23:24;9.10;99.90
45983;DHT22;31711;47.158;7.346;2023-01-05T08:25:51;9.20;99.90
45983;DHT22;31711;47.158;7.346;2023-01-05T08:28:17;9.20;99.90
45983;DHT22;31711;47.158;7.346;2023-01-05T08:30:43;9.10;99.90
45983;DHT22;31711;47.158;7.346;2023-01-05T08:33:09;9.10;99.90
45983;DHT22;31711;47.158;7.346;2023-01-05T08:35:39;9.10;99.90
45983;DHT22;31711;47.158;7.346;2023-01-05T08:38:05;9.10;99.90
45983;DHT22;31711;47.158;7.346;2023-01-05T08:40:31;9.10;99.90
45983;DHT22;31711;47.158;7.346;2023-01-05T08:42:57;9.10;99.90
45983;DHT22;31711;47.158;7.346;2023-01-05T08:45:23;9.20;99.90
45983;DHT22;31711;47.158;7.346;2023-01-05T08:47:49;9.20;99.90
45983;DHT22;31711;47.158;7.346;2023-01-05T08:50:16;9.20;99.90
45983;DHT22;31711;47.158;7.346;2023-01-05T08:52:42;9.20;99.90
45983;DHT22;31711;47.158;7.346;2023-01-05T08:55:08;9.20;99.90
45983;DHT22;31711;47.158;7.346;2023-01-05T08:57:34;9.20;99.90
45983;DHT22;31711;47.158;7.346;2023-01-05T09:00:01;9.20;99.90
45983;DHT22;31711;47.158;7.346;2023-01-05T09:02:27;9.30;99.90
45983;DHT22;31711;47.158;7.346;2023-01-05T09:04:53;9.30;99.90
45983;DHT22;31711;47.158;7.346;2023-01-05T09:07:19;9.30;99.90
45983;DHT22;31711;47.158;7.346;2023-01-05T09:09:45;9.40;99.90
45983;DHT22;31711;47.158;7.346;2023-01-05T09:12:11;9.30;99.90
45983;DHT22;31711;47.158;7.346;2023-01-05T09:14:37;9.20;99.90
45983;DHT22;31711;47.158;7.346;2023-01-05T09:17:03;9.20;99.90
45983;DHT22;31711;47.158;7.346;2023-01-05T09:19:29;9.20;99.90
45983;DHT22;31711;47.158;7.346;2023-01-05T09:21:55;9.20;99.90
45983;DHT22;31711;47.158;7.346;2023-01-05T09:24:21;9.30;99.90
45983;DHT22;31711;47.158;7.346;2023-01-05T09:26:47;9.30;99.90
45983;DHT22;31711;47.158;7.346;2023-01-05T09:29:13;9.30;99.90
45983;DHT22;31711;47.158;7.346;2023-01-05T09:31:40;9.30;99.90
45983;DHT22;31711;47.158;7.346;2023-01-05T09:34:06;9.20;99.90
45983;DHT22;31711;47.158;7.346;2023-01-05T09:36:32;9.30;99.90
45983;DHT22;31711;47.158;7.346;2023-01-05T09:38:58;9.40;99.90
45983;DHT22;31711;47.158;7.346;2023-01-05T09:41:49;9.40;99.90
45983;DHT22;31711;47.158;7.346;2023-01-05T09:44:34;9.40;99.90
45983;DHT22;31711;47.158;7.346;2023-01-05T09:49:31;9.30;99.90
45983;DHT22;31711;47.158;7.346;2023-01-05T09:52:00;9.30;99.90
45983;DHT22;31711;47.158;7.346;2023-01-05T09:54:29;9.30;99.90
45983;DHT22;31711;47.158;7.346;2023-01-05T09:56:58;9.20;99.90
45983;DHT22;31711;47.158;7.346;2023-01-05T09:59:28;9.30;99.90
45983;DHT22;31711;47.158;7.346;2023-01-05T10:01:58;9.30;99.90
45983;DHT22;31711;47.158;7.346;2023-01-05T10:04:27;9.30;99.90
45983;DHT22;31711;47.158;7.346;2023-01-05T10:06:57;9.30;99.90
45983;DHT22;31711;47.158;7.346;2023-01-05T10:09:29;9.30;99.90
45983;DHT22;31711;47.158;7.346;2023-01-05T10:12:08;9.20;99.90
45983;DHT22;31711;47.158;7.346;2023-01-05T10:15:07;9.30;99.90
45983;DHT22;31711;47.158;7.346;2023-01-05T10:17:35;9.30;99.90
45983;DHT22;31711;47.158;7.346;2023-01-05T10:20:50;9.30;99.90
45983;DHT22;31711;47.158;7.346;2023-01-05T10:23:06;9.40;99.90
45983;DHT22;31711;47.158;7.346;2023-01-05T10:25:47;9.40;99.90
45983;DHT22;31711;47.158;7.346;2023-01-05T10:28:22;9.50;99.90
45983;DHT22;31711;47.158;7.346;2023-01-05T10:30:59;9.50;99.90
45983;DHT22;31711;47.158;7.346;2023-01-05T10:34:37;9.50;99.90
45983;DHT22;31711;47.158;7.346;2023-01-05T10:36:58;9.50;99.90
45983;DHT22;31711;47.158;7.346;2023-01-05T10:45:00;9.70;99.90
45983;DHT22;31711;47.158;7.346;2023-01-05T10:47:30;9.70;99.90
45983;DHT22;31711;47.158;7.346;2023-01-05T10:50:02;9.70;99.90
45983;DHT22;31711;47.158;7.346;2023-01-05T10:52:28;9.70;99.90
45983;DHT22;31711;47.158;7.346;2023-01-05T10:55:01;9.70;99.90
45983;DHT22;31711;47.158;7.346;2023-01-05T11:02:28;9.90;99.90
45983;DHT22;31711;47.158;7.346;2023-01-05T11:05:04;10.00;99.90
45983;DHT22;31711;47.158;7.346;2023-01-05T11:07:32;10.10;99.90
45983;DHT22;31711;47.158;7.346;2023-01-05T11:10:50;10.00;99.90
45983;DHT22;31711;47.158;7.346;2023-01-05T11:13:36;10.00;99.90
45983;DHT22;31711;47.158;7.346;2023-01-05T11:18:34;10.20;99.90
45983;DHT22;31711;47.158;7.346;2023-01-05T11:21:13;10.20;99.90
45983;DHT22;31711;47.158;7.346;2023-01-05T11:23:40;10.20;99.90
45983;DHT22;31711;47.158;7.346;2023-01-05T11:26:27;10.20;99.90
45983;DHT22;31711;47.158;7.346;2023-01-05T11:31:37;10.30;99.90
45983;DHT22;31711;47.158;7.346;2023-01-05T11:36:38;10.20;99.90
45983;DHT22;31711;47.158;7.346;2023-01-05T11:39:05;10.30;99.90
45983;DHT22;31711;47.158;7.346;2023-01-05T11:41:31;10.30;99.90
45983;DHT22;31711;47.158;7.346;2023-01-05T11:43:59;10.50;99.90
45983;DHT22;31711;47.158;7.346;2023-01-05T11:46:39;10.60;99.90
45983;DHT22;31711;47.158;7.346;2023-01-05T11:49:07;10.80;99.90
45983;DHT22;31711;47.158;7.346;2023-01-05T11:51:36;10.80;99.90
45983;DHT22;31711;47.158;7.346;2023-01-05T11:54:03;10.90;99.90
45983;DHT22;31711;47.158;7.346;2023-01-05T11:56:29;10.80;99.90
45983;DHT22;31711;47.158;7.346;2023-01-05T11:58:56;10.60;99.90
45983;DHT22;31711;47.158;7.346;2023-01-05T12:02:03;10.70;99.90
45983;DHT22;31711;47.158;7.346;2023-01-05T12:04:56;10.90;99.90
45983;DHT22;31711;47.158;7.346;2023-01-05T12:07:33;10.90;99.90
45983;DHT22;31711;47.158;7.346;2023-01-05T12:19:04;11.00;99.90
45983;DHT22;31711;47.158;7.346;2023-01-05T12:21:26;10.90;99.90
45983;DHT22;31711;47.158;7.346;2023-01-05T12:24:02;11.00;99.90
45983;DHT22;31711;47.158;7.346;2023-01-05T12:26:36;11.00;99.90
45983;DHT22;31711;47.158;7.346;2023-01-05T12:32:48;11.00;99.90
45983;DHT22;31711;47.158;7.346;2023-01-05T12:44:02;11.20;99.90
45983;DHT22;31711;47.158;7.346;2023-01-05T12:49:30;11.20;99.90
45983;DHT22;31711;47.158;7.346;2023-01-05T12:52:46;11.10;99.90
45983;DHT22;31711;47.158;7.346;2023-01-05T12:57:33;11.10;99.90
45983;DHT22;31711;47.158;7.346;2023-01-05T13:02:35;11.10;99.90
45983;DHT22;31711;47.158;7.346;2023-01-05T13:08:09;11.20;99.90
45983;DHT22;31711;47.158;7.346;2023-01-05T13:10:48;11.20;99.90
45983;DHT22;31711;47.158;7.346;2023-01-05T13:13:25;11.20;99.90
45983;DHT22;31711;47.158;7.346;2023-01-05T13:18:23;11.20;99.90
45983;DHT22;31711;47.158;7.346;2023-01-05T13:20:57;11.30;99.90
45983;DHT22;31711;47.158;7.346;2023-01-05T13:23:41;11.30;99.90
45983;DHT22;31711;47.158;7.346;2023-01-05T13:26:19;11.20;99.90
45983;DHT22;31711;47.158;7.346;2023-01-05T13:28:54;11.20;99.90
45983;DHT22;31711;47.158;7.346;2023-01-05T13:31:33;11.20;99.90
45983;DHT22;31711;47.158;7.346;2023-01-05T13:42:58;11.50;99.90
45983;DHT22;31711;47.158;7.346;2023-01-05T13:53:53;11.50;99.90
45983;DHT22;31711;47.158;7.346;2023-01-05T13:56:24;11.60;99.90
45983;DHT22;31711;47.158;7.346;2023-01-05T14:01:38;11.50;99.90
45983;DHT22;31711;47.158;7.346;2023-01-05T14:04:14;11.40;99.90
45983;DHT22;31711;47.158;7.346;2023-01-05T14:06:44;11.40;99.90
45983;DHT22;31711;47.158;7.346;2023-01-05T14:09:33;11.40;99.90
45983;DHT22;31711;47.158;7.346;2023-01-05T14:15:31;11.40;99.90
45983;DHT22;31711;47.158;7.346;2023-01-05T14:18:00;11.40;99.90
45983;DHT22;31711;47.158;7.346;2023-01-05T14:23:00;11.30;99.90
45983;DHT22;31711;47.158;7.346;2023-01-05T14:39:43;11.10;99.90
45983;DHT22;31711;47.158;7.346;2023-01-05T14:42:20;11.10;99.90
45983;DHT22;31711;47.158;7.346;2023-01-05T14:45:22;11.00;99.90
45983;DHT22;31711;47.158;7.346;2023-01-05T14:47:53;11.00;99.90
45983;DHT22;31711;47.158;7.346;2023-01-05T14:50:41;11.00;99.90
45983;DHT22;31711;47.158;7.346;2023-01-05T15:04:04;10.90;99.90
45983;DHT22;31711;47.158;7.346;2023-01-05T15:15:45;10.80;99.90
45983;DHT22;31711;47.158;7.346;2023-01-05T15:34:23;10.60;99.90
45983;DHT22;31711;47.158;7.346;2023-01-05T15:37:10;10.50;99.90
45983;DHT22;31711;47.158;7.346;2023-01-05T15:39:55;10.40;99.90
45983;DHT22;31711;47.158;7.346;2023-01-05T15:42:27;10.30;99.90
45983;DHT22;31711;47.158;7.346;2023-01-05T15:44:56;10.20;99.90
45983;DHT22;31711;47.158;7.346;2023-01-05T15:47:24;10.20;99.90
45983;DHT22;31711;47.158;7.346;2023-01-05T15:49:57;10.20;99.90
45983;DHT22;31711;47.158;7.346;2023-01-05T15:52:38;10.20;99.90
45983;DHT22;31711;47.158;7.346;2023-01-05T15:57:38;10.20;99.90
45983;DHT22;31711;47.158;7.346;2023-01-05T16:00:23;10.20;99.90
45983;DHT22;31711;47.158;7.346;2023-01-05T16:02:50;10.20;99.90
45983;DHT22;31711;47.158;7.346;2023-01-05T16:05:21;10.10;99.90
45983;DHT22;31711;47.158;7.346;2023-01-05T16:07:53;10.00;99.90
45983;DHT22;31711;47.158;7.346;2023-01-05T16:13:02;9.90;99.90
45983;DHT22;31711;47.158;7.346;2023-01-05T16:15:33;9.90;99.90
45983;DHT22;31711;47.158;7.346;2023-01-05T16:17:59;9.90;99.90
45983;DHT22;31711;47.158;7.346;2023-01-05T16:20:26;9.90;99.90
45983;DHT22;31711;47.158;7.346;2023-01-05T16:23:09;10.00;99.90
45983;DHT22;31711;47.158;7.346;2023-01-05T16:25:49;9.90;99.90
45983;DHT22;31711;47.158;7.346;2023-01-05T16:28:18;9.80;99.90
45983;DHT22;31711;47.158;7.346;2023-01-05T16:30:46;9.80;99.90
45983;DHT22;31711;47.158;7.346;2023-01-05T16:41:03;9.70;99.90
45983;DHT22;31711;47.158;7.346;2023-01-05T16:51:21;9.60;99.90
45983;DHT22;31711;47.158;7.346;2023-01-05T16:54:14;9.70;99.90
45983;DHT22;31711;47.158;7.346;2023-01-05T16:56:57;9.60;99.90
45983;DHT22;31711;47.158;7.346;2023-01-05T16:59:47;9.60;99.90
45983;DHT22;31711;47.158;7.346;2023-01-05T17:02:48;9.50;99.90
45983;DHT22;31711;47.158;7.346;2023-01-05T17:05:17;9.40;99.90
45983;DHT22;31711;47.158;7.346;2023-01-05T17:07:45;9.50;99.90
45983;DHT22;31711;47.158;7.346;2023-01-05T17:10:23;9.50;99.90
45983;DHT22;31711;47.158;7.346;2023-01-05T17:12:57;9.50;99.90
45983;DHT22;31711;47.158;7.346;2023-01-05T17:15:32;9.40;99.90
45983;DHT22;31711;47.158;7.346;2023-01-05T17:17:58;9.40;99.90
45983;DHT22;31711;47.158;7.346;2023-01-05T17:20:28;9.40;99.90
45983;DHT22;31711;47.158;7.346;2023-01-05T17:22:55;9.30;99.90
45983;DHT22;31711;47.158;7.346;2023-01-05T17:25:22;9.20;99.90
45983;DHT22;31711;47.158;7.346;2023-01-05T17:27:49;9.10;99.90
45983;DHT22;31711;47.158;7.346;2023-01-05T17:30:20;9.00;99.90
45983;DHT22;31711;47.158;7.346;2023-01-05T17:32:46;8.80;99.90
45983;DHT22;31711;47.158;7.346;2023-01-05T17:35:12;8.70;99.90
45983;DHT22;31711;47.158;7.346;2023-01-05T17:37:38;8.60;99.90
45983;DHT22;31711;47.158;7.346;2023-01-05T17:40:06;8.40;99.90
45983;DHT22;31711;47.158;7.346;2023-01-05T17:42:32;8.40;99.90
45983;DHT22;31711;47.158;7.346;2023-01-05T17:45:13;8.40;99.90
45983;DHT22;31711;47.158;7.346;2023-01-05T17:47:39;8.40;99.90
45983;DHT22;31711;47.158;7.346;2023-01-05T17:50:06;8.30;99.90
45983;DHT22;31711;47.158;7.346;2023-01-05T17:52:33;8.20;99.90
45983;DHT22;31711;47.158;7.346;2023-01-05T17:54:59;8.10;99.90
45983;DHT22;31711;47.158;7.346;2023-01-05T17:57:25;8.10;99.90
45983;DHT22;31711;47.158;7.346;2023-01-05T17:59:50;8.10;99.90
45983;DHT22;31711;47.158;7.346;2023-01-05T18:02:16;8.00;99.90
45983;DHT22;31711;47.158;7.346;2023-01-05T18:04:42;7.90;99.90
45983;DHT22;31711;47.158;7.346;2023-01-05T18:07:08;7.80;99.90
45983;DHT22;31711;47.158;7.346;2023-01-05T18:09:34;7.80;99.90
45983;DHT22;31711;47.158;7.346;2023-01-05T18:12:03;7.70;99.90
45983;DHT22;31711;47.158;7.346;2023-01-05T18:14:29;7.70;99.90
45983;DHT22;31711;47.158;7.346;2023-01-05T18:16:55;7.60;99.90
45983;DHT22;31711;47.158;7.346;2023-01-05T18:19:21;7.50;99.90
45983;DHT22;31711;47.158;7.346;2023-01-05T18:21:47;7.50;99.90
45983;DHT22;31711;47.158;7.346;2023-01-05T18:24:13;7.70;99.90
45983;DHT22;31711;47.158;7.346;2023-01-05T18:26:39;7.50;99.90
45983;DHT22;31711;47.158;7.346;2023-01-05T18:29:05;7.50;99.90
45983;DHT22;31711;47.158;7.346;2023-01-05T18:31:31;7.40;99.90
45983;DHT22;31711;47.158;7.346;2023-01-05T18:33:57;7.30;99.90
45983;DHT22;31711;47.158;7.346;2023-01-05T18:36:23;7.30;99.90
45983;DHT22;31711;47.158;7.346;2023-01-05T18:38:48;7.20;99.90
45983;DHT22;31711;47.158;7.346;2023-01-05T18:41:14;7.20;99.90
45983;DHT22;31711;47.158;7.346;2023-01-05T18:43:40;7.10;99.90
45983;DHT22;31711;47.158;7.346;2023-01-05T18:46:06;6.90;99.90
45983;DHT22;31711;47.158;7.346;2023-01-05T18:48:32;6.80;99.90
45983;DHT22;31711;47.158;7.346;2023-01-05T18:50:58;6.70;99.90
45983;DHT22;31711;47.158;7.346;2023-01-05T18:53:24;6.70;99.90
45983;DHT22;31711;47.158;7.346;2023-01-05T18:55:50;6.70;99.90
45983;DHT22;31711;47.158;7.346;2023-01-05T18:58:16;6.70;99.90
45983;DHT22;31711;47.158;7.346;2023-01-05T19:00:44;6.70;99.90
45983;DHT22;31711;47.158;7.346;2023-01-05T19:03:10;6.70;99.90
45983;DHT22;31711;47.158;7.346;2023-01-05T19:05:41;6.60;99.90
45983;DHT22;31711;47.158;7.346;2023-01-05T19:08:08;6.60;99.90
45983;DHT22;31711;47.158;7.346;2023-01-05T19:10:35;6.70;99.90
45983;DHT22;31711;47.158;7.346;2023-01-05T19:13:01;6.70;99.90